createdAt,value
2023-09-08T00:01:09.268Z,101570.40
2023-09-08T00:06:10.892Z,101561.20
2023-09-08T00:11:10.566Z,101557.60
2023-09-08T00:16:12.712Z,101558.20
2023-09-08T00:21:12.155Z,101552.80
2023-09-08T00:26:10.997Z,101548.40
2023-09-08T00:31:10.890Z,101549.20
2023-09-08T00:36:10.888Z,101546.40
2023-09-08T00:41:12.777Z,101548.00
2023-09-08T00:46:13.797Z,101553.80
2023-09-08T00:51:14.709Z,101554.80
2023-09-08T00:56:16.036Z,101557.00
2023-09-08T01:01:19.136Z,101556.20
2023-09-08T01:06:20.613Z,101552.40
2023-09-08T01:11:24.436Z,101549.60
2023-09-08T01:16:25.141Z,101547.80
2023-09-08T01:22:00.769Z,101547.40
2023-09-08T01:27:00.590Z,101540.80
2023-09-08T01:32:02.081Z,101537.80
2023-09-08T01:37:04.145Z,101533.80
2023-09-08T01:42:03.686Z,101532.00
2023-09-08T01:47:02.584Z,101529.20
2023-09-08T01:52:01.909Z,101524.20
2023-09-08T01:57:01.958Z,101524.40
2023-09-08T02:02:01.815Z,101515.20
2023-09-08T02:07:03.041Z,101513.60
2023-09-08T02:12:02.650Z,101517.40
2023-09-08T02:17:02.309Z,101517.60
2023-09-08T02:22:01.681Z,101520.80
2023-09-08T02:27:02.203Z,101514.00
2023-09-08T02:32:02.816Z,101512.60
2023-09-08T02:37:02.051Z,101515.80
2023-09-08T02:42:01.473Z,101506.20
2023-09-08T02:47:01.463Z,101500.80
2023-09-08T02:52:01.466Z,101497.20
2023-09-08T02:57:00.955Z,101498.20
2023-09-08T03:02:01.406Z,101493.20
2023-09-08T03:07:00.970Z,101490.80
2023-09-08T03:12:00.966Z,101491.80
2023-09-08T03:17:01.827Z,101484.20
2023-09-08T03:22:01.414Z,101474.60
2023-09-08T03:27:01.185Z,101472.40
2023-09-08T03:32:02.062Z,101476.00
2023-09-08T03:37:02.084Z,101473.60
2023-09-08T03:42:02.095Z,101476.00
2023-09-08T03:47:03.821Z,101478.00
2023-09-08T03:52:03.704Z,101478.00
2023-09-08T03:57:05.205Z,101477.00
2023-09-08T04:02:04.922Z,101476.00
2023-09-08T04:07:04.986Z,101473.00
2023-09-08T04:12:05.530Z,101476.40
2023-09-08T04:17:05.510Z,101469.80
2023-09-08T04:22:06.259Z,101474.20
2023-09-08T04:27:05.429Z,101466.60
2023-09-08T04:32:10.275Z,101466.60
2023-09-08T04:37:10.270Z,101469.20
2023-09-08T04:42:10.882Z,101467.80
2023-09-08T04:47:10.441Z,101465.60
2023-09-08T04:52:12.618Z,101466.80
2023-09-08T04:57:22.944Z,101463.20
2023-09-08T05:02:25.881Z,101461.00
2023-09-08T05:07:26.133Z,101466.80
2023-09-08T05:12:26.241Z,101462.00
2023-09-08T05:17:25.364Z,101461.40
2023-09-08T05:22:26.402Z,101459.20
2023-09-08T05:27:26.927Z,101460.00
2023-09-08T05:32:27.547Z,101464.60
2023-09-08T05:37:31.414Z,101460.40
2023-09-08T05:42:31.200Z,101461.40
2023-09-08T05:47:30.461Z,101460.40
2023-09-08T05:52:30.104Z,101463.60
2023-09-08T05:57:30.093Z,101468.40
2023-09-08T06:02:30.428Z,101474.40
2023-09-08T06:07:31.173Z,101468.00
2023-09-08T06:12:30.970Z,101469.80
2023-09-08T06:17:30.375Z,101467.00
2023-09-08T06:22:31.371Z,101465.40
2023-09-08T06:27:34.000Z,101463.40
2023-09-08T06:32:34.241Z,101466.20
2023-09-08T06:37:40.456Z,101461.80
2023-09-08T06:42:42.536Z,101460.40
2023-09-08T06:47:47.142Z,101457.60
2023-09-08T06:52:47.371Z,101459.40
2023-09-08T06:57:47.285Z,101465.20
2023-09-08T07:02:47.412Z,101460.40
2023-09-08T07:07:51.255Z,101467.40
2023-09-08T07:12:51.081Z,101457.00
2023-09-08T07:17:54.818Z,101458.40
2023-09-08T07:22:55.933Z,101459.20
2023-09-08T07:27:55.653Z,101456.80
2023-09-08T07:32:56.093Z,101460.80
2023-09-08T07:37:57.128Z,101460.80
2023-09-08T07:42:57.565Z,101464.40
2023-09-08T07:47:57.350Z,101462.40
2023-09-08T07:52:58.997Z,101457.40
2023-09-08T07:58:00.367Z,101461.00
2023-09-08T08:03:01.931Z,101456.00
2023-09-08T08:08:02.675Z,101459.80
2023-09-08T08:13:01.834Z,101458.00
2023-09-08T08:18:04.364Z,101451.60
2023-09-08T08:23:04.807Z,101453.40
2023-09-08T08:28:04.522Z,101454.00
2023-09-08T08:33:03.876Z,101457.80
2023-09-08T08:38:04.557Z,101459.00
2023-09-08T08:43:05.169Z,101461.60
2023-09-08T08:48:08.526Z,101459.20
2023-09-08T08:53:23.545Z,101453.60
2023-09-08T08:58:28.083Z,101450.20
2023-09-08T09:03:34.262Z,101448.00
2023-09-08T09:08:36.329Z,101443.00
2023-09-08T09:13:36.882Z,101438.60
2023-09-08T09:18:56.120Z,101434.00
2023-09-08T09:23:57.050Z,101430.40
2023-09-08T09:29:01.620Z,101429.60
2023-09-08T09:34:11.944Z,101424.40
2023-09-08T09:39:12.640Z,101426.40
2023-09-08T09:44:13.592Z,101420.00
2023-09-08T09:49:19.068Z,101418.60
2023-09-08T09:54:19.797Z,101414.20
2023-09-08T09:59:19.937Z,101409.60
2023-09-08T10:04:20.874Z,101408.40
2023-09-08T10:09:25.409Z,101402.20
2023-09-08T10:14:26.049Z,101400.00
2023-09-08T10:19:29.245Z,101396.00
2023-09-08T10:24:35.082Z,101398.80
2023-09-08T10:29:37.259Z,101394.60
2023-09-08T10:34:39.847Z,101390.20
2023-09-08T10:39:43.098Z,101390.60
2023-09-08T10:44:45.105Z,101386.60
2023-09-08T10:49:47.821Z,101375.20
2023-09-08T10:54:56.288Z,101368.60
2023-09-08T11:00:01.375Z,101357.80
2023-09-08T11:05:01.532Z,101353.80
2023-09-08T11:10:01.676Z,101347.00
2023-09-08T11:15:02.543Z,101346.80
2023-09-08T11:20:02.639Z,101340.00
2023-09-08T11:25:05.881Z,101342.00
2023-09-08T11:30:08.370Z,101338.80
2023-09-08T11:35:12.563Z,101335.20
2023-09-08T11:40:15.583Z,101338.60
2023-09-08T11:45:19.418Z,101337.80
2023-09-08T11:50:20.828Z,101338.20
2023-09-08T11:55:30.432Z,101332.40
2023-09-08T12:00:34.245Z,101328.40
2023-09-08T12:05:41.403Z,101325.60
2023-09-08T12:10:47.103Z,101324.60
2023-09-08T12:15:47.737Z,101316.80
2023-09-08T12:20:49.524Z,101316.80
2023-09-08T12:25:56.427Z,101310.40
2023-09-08T12:30:57.074Z,101311.40
2023-09-08T12:35:56.506Z,101306.00
2023-09-08T12:40:56.548Z,101300.80
2023-09-08T12:45:58.947Z,101297.80
2023-09-08T12:50:59.942Z,101289.40
2023-09-08T12:56:09.490Z,101285.00
2023-09-08T13:01:08.722Z,101280.60
2023-09-08T13:06:09.429Z,101278.80
2023-09-08T13:11:14.946Z,101274.20
2023-09-08T13:16:17.614Z,101275.20
2023-09-08T13:21:16.978Z,101271.80
2023-09-08T13:26:19.024Z,101268.20
2023-09-08T13:31:21.848Z,101269.20
2023-09-08T13:36:21.236Z,101261.40
2023-09-08T13:41:23.494Z,101256.20
2023-09-08T13:46:35.653Z,101250.80
2023-09-08T13:51:42.724Z,101246.20
2023-09-08T13:56:45.391Z,101250.00
2023-09-08T14:01:53.983Z,101242.00
2023-09-08T14:07:08.576Z,101242.00
2023-09-08T14:12:33.298Z,101234.40
2023-09-08T14:17:41.248Z,101233.00
2023-09-08T14:22:41.064Z,101232.20
2023-09-08T14:27:42.513Z,101225.40
2023-09-08T14:32:42.310Z,101225.00
2023-09-08T14:37:41.225Z,101224.00
2023-09-08T14:42:40.911Z,101224.00
2023-09-08T14:47:40.480Z,101215.80
2023-09-08T14:52:42.686Z,101207.80
2023-09-08T14:57:43.559Z,101201.20
2023-09-08T15:02:42.949Z,101194.80
2023-09-08T15:07:42.707Z,101190.00
2023-09-08T15:12:41.985Z,101178.60
2023-09-08T15:17:44.543Z,101175.80
2023-09-08T15:22:44.167Z,101178.80
2023-09-08T15:27:44.464Z,101179.00
2023-09-08T15:32:43.736Z,101169.00
2023-09-08T15:37:45.082Z,101165.20
2023-09-08T15:42:46.718Z,101161.00
2023-09-08T15:47:46.107Z,101160.20
2023-09-08T15:52:54.420Z,101161.00
2023-09-08T15:57:59.891Z,101159.40
2023-09-08T16:02:59.434Z,101161.00
2023-09-08T16:08:12.574Z,101156.20
2023-09-08T16:13:26.604Z,101157.60
2023-09-08T16:18:26.176Z,101151.80
2023-09-08T16:23:36.870Z,101147.40
2023-09-08T16:28:37.536Z,101147.60
2023-09-08T16:33:40.408Z,101144.00
2023-09-08T16:38:40.215Z,101154.40
2023-09-08T16:43:40.104Z,101155.20
2023-09-08T16:48:41.906Z,101152.20
2023-09-08T16:53:50.529Z,101154.00
2023-09-08T16:58:51.158Z,101157.00
2023-09-08T17:03:51.015Z,101155.40
2023-09-08T17:08:52.860Z,101151.40
2023-09-08T17:13:53.938Z,101158.40
2023-09-08T17:18:54.181Z,101161.40
2023-09-08T17:23:53.584Z,101156.80
2023-09-08T17:28:53.573Z,101156.60
2023-09-08T17:34:02.499Z,101156.40
2023-09-08T17:39:02.725Z,101150.40
2023-09-08T17:44:02.853Z,101149.80
2023-09-08T17:49:04.224Z,101153.20
2023-09-08T17:54:03.726Z,101156.40
2023-09-08T17:59:03.507Z,101158.00
2023-09-08T18:04:03.879Z,101157.80
2023-09-08T18:09:03.724Z,101162.80
2023-09-08T18:14:04.470Z,101161.20
2023-09-08T18:19:05.251Z,101159.20
2023-09-08T18:24:06.058Z,101153.80
2023-09-08T18:29:08.724Z,101152.60
2023-09-08T18:34:10.237Z,101150.80
2023-09-08T18:39:11.035Z,101156.00
2023-09-08T18:44:12.599Z,101148.80
2023-09-08T18:49:11.960Z,101148.00
2023-09-08T18:54:13.758Z,101151.60
2023-09-08T18:59:14.302Z,101146.60
2023-09-08T19:04:14.008Z,101143.80
2023-09-08T19:09:14.200Z,101136.00
2023-09-08T19:14:15.806Z,101136.20
2023-09-08T19:19:16.015Z,101138.00
2023-09-08T19:24:19.296Z,101133.40
2023-09-08T19:29:20.785Z,101133.20
2023-09-08T19:34:21.949Z,101127.80
2023-09-08T19:39:26.590Z,101128.00
2023-09-08T19:44:28.312Z,101131.60
2023-09-08T19:49:36.803Z,101127.80
2023-09-08T19:54:48.935Z,101124.80
2023-09-08T19:59:51.710Z,101122.40
2023-09-08T20:04:57.379Z,101119.60
2023-09-08T20:09:58.401Z,101116.00
2023-09-08T20:15:01.014Z,101116.80
2023-09-08T20:20:00.439Z,101109.20
2023-09-08T20:25:00.652Z,101110.80
2023-09-08T20:30:02.049Z,101115.00
2023-09-08T20:35:02.451Z,101113.40
2023-09-08T20:40:04.685Z,101117.20
2023-09-08T20:45:05.602Z,101124.20
2023-09-08T20:50:05.716Z,101119.60
2023-09-08T20:55:05.792Z,101113.00
2023-09-08T21:00:06.256Z,101109.20
2023-09-08T21:05:07.124Z,101112.40
2023-09-08T21:10:07.312Z,101104.20
2023-09-08T21:15:08.376Z,101107.40
2023-09-08T21:20:14.407Z,101107.00
2023-09-08T21:25:15.113Z,101107.20
2023-09-08T21:30:15.749Z,101104.60
2023-09-08T21:35:16.223Z,101107.20
2023-09-08T21:40:17.731Z,101113.40
2023-09-08T21:45:17.991Z,101109.00
2023-09-08T21:50:17.776Z,101103.60
2023-09-08T21:55:19.201Z,101103.60
2023-09-08T22:00:23.412Z,101099.00
2023-09-08T22:05:23.784Z,101097.80
2023-09-08T22:10:24.131Z,101100.40
2023-09-08T22:15:23.623Z,101101.20
2023-09-08T22:20:23.978Z,101097.60
2023-09-08T22:25:24.460Z,101095.40
2023-09-08T22:30:24.209Z,101106.20
2023-09-08T22:35:23.506Z,101101.00
2023-09-08T22:40:23.515Z,101097.80
2023-09-08T22:45:23.718Z,101097.00
2023-09-08T22:50:24.478Z,101096.60
2023-09-08T22:55:26.088Z,101090.40
2023-09-08T23:00:26.534Z,101091.40
2023-09-08T23:05:26.134Z,101090.20
2023-09-08T23:10:29.094Z,101085.80
2023-09-08T23:15:29.956Z,101083.00
2023-09-08T23:20:31.222Z,101084.40
2023-09-08T23:25:32.163Z,101084.80
2023-09-08T23:30:32.201Z,101085.00
2023-09-08T23:35:31.520Z,101089.80
2023-09-08T23:40:31.317Z,101085.00
2023-09-08T23:45:30.724Z,101086.80
2023-09-08T23:50:57.744Z,101092.20
2023-09-08T23:55:58.584Z,101087.00
